KSFO/SFO METAR and TAF weather

Enter ICAO airport designator
Station Type Date Time Source
KSFO METAR 2023/01/29 18:56 UTC NOAA

KSFO 291856Z 03011KT 10SM FEW025 SCT035 11/04 A2984 RMK AO2 SLP105 T01110044 $


Station Type Date Time Source
KSFO Decoded METAR 2023/01/29 18:56 UTC NOAA

SAN FRANCISCO INTERNATIONAL AIRPORT , CA, United States (KSFO) 37-37N 122-22W 26M
Jan 29, 2023 - 01:56 PM EST / 2023.01.29 1856 UTC
Wind: from the NNE (030 degrees) at 13 MPH (11 KT):0
Visibility: 10 mile(s):0
Sky conditions: partly cloudy
Temperature: 52.0 F (11.1 C)
Dew Point: 39.9 F (4.4 C)
Relative Humidity: 63%
Pressure (altimeter): 29.84 in. Hg (1010 hPa)
ob: KSFO 291856Z 03011KT 10SM FEW025 SCT035 11/04 A2984 RMK AO2 SLP105 T01110044
cycle: 19

Station Type Date Time Source
KSFO TAF 2023/01/29 18:22 UTC NOAA

TAF KSFO 291720Z 2918/3024 32014G27KT P6SM VCSH BKN028
TEMPO 2923/3002 4SM -SHRA
FM300200 02015G26KT P6SM BKN040
FM301000 03010KT P6SM SKC

Example: see airport list